sensor_id;sensor_type;location;lat;lon;timestamp;temperature;humidity
11989;DHT22;6054;50.966;7.094;2023-11-21T00:02:25;17.40;61.60
11989;DHT22;6054;50.966;7.094;2023-11-21T00:04:52;17.30;61.20
11989;DHT22;6054;50.966;7.094;2023-11-21T00:07:19;17.10;61.20
11989;DHT22;6054;50.966;7.094;2023-11-21T00:09:46;17.20;61.00
11989;DHT22;6054;50.966;7.094;2023-11-21T00:12:13;17.40;60.80
11989;DHT22;6054;50.966;7.094;2023-11-21T00:14:41;17.00;60.90
11989;DHT22;6054;50.966;7.094;2023-11-21T00:17:08;17.40;61.10
11989;DHT22;6054;50.966;7.094;2023-11-21T00:19:35;17.00;59.70
11989;DHT22;6054;50.966;7.094;2023-11-21T00:22:03;17.00;60.30
11989;DHT22;6054;50.966;7.094;2023-11-21T00:24:32;17.10;59.10
11989;DHT22;6054;50.966;7.094;2023-11-21T00:26:59;17.00;58.90
11989;DHT22;6054;50.966;7.094;2023-11-21T00:29:26;17.00;59.10
11989;DHT22;6054;50.966;7.094;2023-11-21T00:31:54;17.30;60.40
11989;DHT22;6054;50.966;7.094;2023-11-21T00:34:21;17.20;60.10
11989;DHT22;6054;50.966;7.094;2023-11-21T00:36:48;17.00;59.90
11989;DHT22;6054;50.966;7.094;2023-11-21T00:39:15;16.90;60.30
11989;DHT22;6054;50.966;7.094;2023-11-21T00:41:42;17.10;60.30
11989;DHT22;6054;50.966;7.094;2023-11-21T00:44:10;16.90;60.20
11989;DHT22;6054;50.966;7.094;2023-11-21T00:46:37;16.90;60.60
11989;DHT22;6054;50.966;7.094;2023-11-21T00:49:05;16.90;58.90
11989;DHT22;6054;50.966;7.094;2023-11-21T00:51:33;17.10;60.00
11989;DHT22;6054;50.966;7.094;2023-11-21T00:54:00;16.90;59.40
11989;DHT22;6054;50.966;7.094;2023-11-21T00:56:27;16.90;60.40
11989;DHT22;6054;50.966;7.094;2023-11-21T00:58:54;16.90;61.10
11989;DHT22;6054;50.966;7.094;2023-11-21T01:01:21;16.80;60.30
11989;DHT22;6054;50.966;7.094;2023-11-21T01:03:49;16.80;60.80
11989;DHT22;6054;50.966;7.094;2023-11-21T01:06:17;16.80;59.30
11989;DHT22;6054;50.966;7.094;2023-11-21T01:08:45;17.10;59.50
11989;DHT22;6054;50.966;7.094;2023-11-21T01:11:12;17.00;59.10
11989;DHT22;6054;50.966;7.094;2023-11-21T01:13:39;16.90;59.80
11989;DHT22;6054;50.966;7.094;2023-11-21T01:16:07;16.70;61.20
11989;DHT22;6054;50.966;7.094;2023-11-21T01:18:34;16.70;61.20
11989;DHT22;6054;50.966;7.094;2023-11-21T01:21:01;16.90;59.40
11989;DHT22;6054;50.966;7.094;2023-11-21T01:23:30;16.70;59.90
11989;DHT22;6054;50.966;7.094;2023-11-21T01:25:57;16.90;58.80
11989;DHT22;6054;50.966;7.094;2023-11-21T01:28:24;16.90;60.20
11989;DHT22;6054;50.966;7.094;2023-11-21T01:30:52;16.60;60.00
11989;DHT22;6054;50.966;7.094;2023-11-21T01:33:21;16.60;59.90
11989;DHT22;6054;50.966;7.094;2023-11-21T01:35:50;16.70;60.00
11989;DHT22;6054;50.966;7.094;2023-11-21T01:38:19;16.80;59.80
11989;DHT22;6054;50.966;7.094;2023-11-21T01:40:49;16.70;59.40
11989;DHT22;6054;50.966;7.094;2023-11-21T01:43:16;16.50;58.40
11989;DHT22;6054;50.966;7.094;2023-11-21T01:45:43;16.50;59.60
11989;DHT22;6054;50.966;7.094;2023-11-21T01:48:11;16.60;59.70
11989;DHT22;6054;50.966;7.094;2023-11-21T01:50:39;16.80;60.80
11989;DHT22;6054;50.966;7.094;2023-11-21T01:53:06;16.50;60.50
11989;DHT22;6054;50.966;7.094;2023-11-21T01:55:33;16.50;59.80
11989;DHT22;6054;50.966;7.094;2023-11-21T01:58:02;16.70;59.10
11989;DHT22;6054;50.966;7.094;2023-11-21T02:00:29;16.70;59.20
11989;DHT22;6054;50.966;7.094;2023-11-21T02:02:56;16.60;59.00
11989;DHT22;6054;50.966;7.094;2023-11-21T02:05:24;16.40;59.30
11989;DHT22;6054;50.966;7.094;2023-11-21T02:07:51;16.50;59.60
11989;DHT22;6054;50.966;7.094;2023-11-21T02:10:19;16.70;59.30
11989;DHT22;6054;50.966;7.094;2023-11-21T02:12:48;16.40;59.70
11989;DHT22;6054;50.966;7.094;2023-11-21T02:15:18;16.80;61.20
11989;DHT22;6054;50.966;7.094;2023-11-21T02:17:47;16.50;60.70
11989;DHT22;6054;50.966;7.094;2023-11-21T02:20:17;16.40;60.80
11989;DHT22;6054;50.966;7.094;2023-11-21T02:22:49;16.30;59.90
11989;DHT22;6054;50.966;7.094;2023-11-21T02:25:17;16.30;60.20
11989;DHT22;6054;50.966;7.094;2023-11-21T02:27:44;16.30;58.60
11989;DHT22;6054;50.966;7.094;2023-11-21T02:30:14;16.20;58.90
11989;DHT22;6054;50.966;7.094;2023-11-21T02:32:41;16.30;60.50
11989;DHT22;6054;50.966;7.094;2023-11-21T02:35:09;16.60;60.20
11989;DHT22;6054;50.966;7.094;2023-11-21T02:37:37;16.60;59.60
11989;DHT22;6054;50.966;7.094;2023-11-21T02:40:08;16.20;59.70
11989;DHT22;6054;50.966;7.094;2023-11-21T02:42:36;16.20;60.70
11989;DHT22;6054;50.966;7.094;2023-11-21T02:45:03;16.20;59.80
11989;DHT22;6054;50.966;7.094;2023-11-21T02:47:31;16.20;60.70
11989;DHT22;6054;50.966;7.094;2023-11-21T02:49:58;16.40;60.10
11989;DHT22;6054;50.966;7.094;2023-11-21T02:52:24;16.40;58.50
11989;DHT22;6054;50.966;7.094;2023-11-21T02:54:51;16.10;58.50
11989;DHT22;6054;50.966;7.094;2023-11-21T02:57:19;16.10;58.90
11989;DHT22;6054;50.966;7.094;2023-11-21T02:59:46;16.40;58.80
11989;DHT22;6054;50.966;7.094;2023-11-21T03:02:13;16.20;58.70
11989;DHT22;6054;50.966;7.094;2023-11-21T03:04:41;16.20;59.60
11989;DHT22;6054;50.966;7.094;2023-11-21T03:07:09;16.20;60.00
11989;DHT22;6054;50.966;7.094;2023-11-21T03:09:36;16.20;60.20
11989;DHT22;6054;50.966;7.094;2023-11-21T03:12:03;16.20;60.00
11989;DHT22;6054;50.966;7.094;2023-11-21T03:14:31;16.20;60.60
11989;DHT22;6054;50.966;7.094;2023-11-21T03:16:59;16.20;55.50
11989;DHT22;6054;50.966;7.094;2023-11-21T03:19:26;16.10;57.30
11989;DHT22;6054;50.966;7.094;2023-11-21T03:21:52;16.10;58.10
11989;DHT22;6054;50.966;7.094;2023-11-21T03:24:19;16.20;59.50
11989;DHT22;6054;50.966;7.094;2023-11-21T03:26:48;16.30;58.30
11989;DHT22;6054;50.966;7.094;2023-11-21T03:29:15;16.20;59.80
11989;DHT22;6054;50.966;7.094;2023-11-21T03:31:43;16.20;58.70
11989;DHT22;6054;50.966;7.094;2023-11-21T03:34:15;16.10;59.50
11989;DHT22;6054;50.966;7.094;2023-11-21T03:36:42;16.10;60.70
11989;DHT22;6054;50.966;7.094;2023-11-21T03:39:09;16.10;59.00
11989;DHT22;6054;50.966;7.094;2023-11-21T03:41:35;16.20;58.70
11989;DHT22;6054;50.966;7.094;2023-11-21T03:44:02;16.20;59.80
11989;DHT22;6054;50.966;7.094;2023-11-21T03:46:29;16.20;59.30
11989;DHT22;6054;50.966;7.094;2023-11-21T03:48:57;16.20;59.20
11989;DHT22;6054;50.966;7.094;2023-11-21T03:51:24;16.10;59.10
11989;DHT22;6054;50.966;7.094;2023-11-21T03:53:51;16.10;58.90
11989;DHT22;6054;50.966;7.094;2023-11-21T03:56:18;16.10;59.20
11989;DHT22;6054;50.966;7.094;2023-11-21T03:58:47;16.20;58.80
11989;DHT22;6054;50.966;7.094;2023-11-21T04:01:19;16.20;60.10
11989;DHT22;6054;50.966;7.094;2023-11-21T04:03:47;16.10;60.80
11989;DHT22;6054;50.966;7.094;2023-11-21T04:06:16;16.50;59.90
11989;DHT22;6054;50.966;7.094;2023-11-21T04:08:46;16.10;60.80
11989;DHT22;6054;50.966;7.094;2023-11-21T04:11:13;16.20;59.00
11989;DHT22;6054;50.966;7.094;2023-11-21T04:13:41;16.40;59.10
11989;DHT22;6054;50.966;7.094;2023-11-21T04:16:09;16.10;59.70
11989;DHT22;6054;50.966;7.094;2023-11-21T04:18:36;16.10;58.80
11989;DHT22;6054;50.966;7.094;2023-11-21T04:21:03;16.50;60.30
11989;DHT22;6054;50.966;7.094;2023-11-21T04:23:32;16.20;60.80
11989;DHT22;6054;50.966;7.094;2023-11-21T04:25:58;16.20;58.10
11989;DHT22;6054;50.966;7.094;2023-11-21T04:28:25;16.40;58.40
11989;DHT22;6054;50.966;7.094;2023-11-21T04:30:52;16.30;59.50
11989;DHT22;6054;50.966;7.094;2023-11-21T04:33:19;16.50;58.70
11989;DHT22;6054;50.966;7.094;2023-11-21T04:35:47;16.20;59.20
11989;DHT22;6054;50.966;7.094;2023-11-21T04:38:14;16.20;59.50
11989;DHT22;6054;50.966;7.094;2023-11-21T04:40:42;16.10;59.10
11989;DHT22;6054;50.966;7.094;2023-11-21T04:43:09;16.40;60.10
11989;DHT22;6054;50.966;7.094;2023-11-21T04:45:35;16.20;60.30
11989;DHT22;6054;50.966;7.094;2023-11-21T04:48:03;16.20;60.00
11989;DHT22;6054;50.966;7.094;2023-11-21T04:50:31;16.20;59.30
11989;DHT22;6054;50.966;7.094;2023-11-21T04:52:57;16.10;59.70
11989;DHT22;6054;50.966;7.094;2023-11-21T04:55:24;16.30;59.00
11989;DHT22;6054;50.966;7.094;2023-11-21T04:57:55;16.10;59.60
11989;DHT22;6054;50.966;7.094;2023-11-21T05:00:22;15.90;57.60
11989;DHT22;6054;50.966;7.094;2023-11-21T05:02:49;16.20;58.90
11989;DHT22;6054;50.966;7.094;2023-11-21T05:05:16;16.20;56.70
11989;DHT22;6054;50.966;7.094;2023-11-21T05:07:44;16.10;57.90
11989;DHT22;6054;50.966;7.094;2023-11-21T05:10:11;16.40;60.50
11989;DHT22;6054;50.966;7.094;2023-11-21T05:12:40;16.20;58.50
11989;DHT22;6054;50.966;7.094;2023-11-21T05:15:12;16.10;59.70
11989;DHT22;6054;50.966;7.094;2023-11-21T05:17:41;16.40;60.10
11989;DHT22;6054;50.966;7.094;2023-11-21T05:20:09;15.90;58.60
11989;DHT22;6054;50.966;7.094;2023-11-21T05:22:37;16.10;60.50
11989;DHT22;6054;50.966;7.094;2023-11-21T05:25:05;16.00;59.50
11989;DHT22;6054;50.966;7.094;2023-11-21T05:27:33;16.10;60.60
11989;DHT22;6054;50.966;7.094;2023-11-21T05:30:01;16.30;60.00
11989;DHT22;6054;50.966;7.094;2023-11-21T05:32:29;16.30;59.30
11989;DHT22;6054;50.966;7.094;2023-11-21T05:34:56;16.30;57.50
11989;DHT22;6054;50.966;7.094;2023-11-21T05:37:24;16.20;60.00
11989;DHT22;6054;50.966;7.094;2023-11-21T05:39:52;16.00;59.10
11989;DHT22;6054;50.966;7.094;2023-11-21T05:42:20;16.30;58.70
11989;DHT22;6054;50.966;7.094;2023-11-21T05:44:46;16.00;58.50
11989;DHT22;6054;50.966;7.094;2023-11-21T05:47:13;16.20;59.40
11989;DHT22;6054;50.966;7.094;2023-11-21T05:49:41;16.00;59.80
11989;DHT22;6054;50.966;7.094;2023-11-21T05:52:08;16.00;59.60
11989;DHT22;6054;50.966;7.094;2023-11-21T05:54:35;16.20;59.10
11989;DHT22;6054;50.966;7.094;2023-11-21T05:57:03;15.90;58.70
11989;DHT22;6054;50.966;7.094;2023-11-21T05:59:30;16.00;59.30
11989;DHT22;6054;50.966;7.094;2023-11-21T06:01:56;16.00;59.00
11989;DHT22;6054;50.966;7.094;2023-11-21T06:04:24;15.90;59.10
11989;DHT22;6054;50.966;7.094;2023-11-21T06:06:52;16.20;59.10
11989;DHT22;6054;50.966;7.094;2023-11-21T06:09:19;15.90;60.10
11989;DHT22;6054;50.966;7.094;2023-11-21T06:11:47;16.00;60.00
11989;DHT22;6054;50.966;7.094;2023-11-21T06:14:14;16.00;60.50
11989;DHT22;6054;50.966;7.094;2023-11-21T06:16:43;15.90;60.10
11989;DHT22;6054;50.966;7.094;2023-11-21T06:19:10;15.90;59.80
11989;DHT22;6054;50.966;7.094;2023-11-21T06:21:37;16.00;60.50
11989;DHT22;6054;50.966;7.094;2023-11-21T06:24:06;16.00;60.10
11989;DHT22;6054;50.966;7.094;2023-11-21T06:26:32;16.00;60.20
11989;DHT22;6054;50.966;7.094;2023-11-21T06:29:00;15.90;58.70
11989;DHT22;6054;50.966;7.094;2023-11-21T06:31:26;15.90;58.70
11989;DHT22;6054;50.966;7.094;2023-11-21T06:33:53;16.00;59.90
11989;DHT22;6054;50.966;7.094;2023-11-21T06:36:19;15.90;60.60
11989;DHT22;6054;50.966;7.094;2023-11-21T06:38:46;16.00;60.70
11989;DHT22;6054;50.966;7.094;2023-11-21T06:41:14;16.00;61.20
11989;DHT22;6054;50.966;7.094;2023-11-21T06:43:41;16.00;60.80
11989;DHT22;6054;50.966;7.094;2023-11-21T06:46:11;16.00;60.70
11989;DHT22;6054;50.966;7.094;2023-11-21T06:48:40;16.00;59.30
11989;DHT22;6054;50.966;7.094;2023-11-21T06:51:07;16.00;61.40
11989;DHT22;6054;50.966;7.094;2023-11-21T06:53:34;16.10;59.10
11989;DHT22;6054;50.966;7.094;2023-11-21T06:56:02;16.00;61.30
11989;DHT22;6054;50.966;7.094;2023-11-21T06:58:30;16.00;60.30
11989;DHT22;6054;50.966;7.094;2023-11-21T07:00:57;16.00;59.70
11989;DHT22;6054;50.966;7.094;2023-11-21T07:03:24;16.10;58.30
11989;DHT22;6054;50.966;7.094;2023-11-21T07:05:51;16.00;59.90
11989;DHT22;6054;50.966;7.094;2023-11-21T07:08:18;16.00;61.30
11989;DHT22;6054;50.966;7.094;2023-11-21T07:10:45;16.00;60.60
11989;DHT22;6054;50.966;7.094;2023-11-21T07:13:12;16.10;61.10
11989;DHT22;6054;50.966;7.094;2023-11-21T07:15:40;16.10;61.20
11989;DHT22;6054;50.966;7.094;2023-11-21T07:18:07;16.00;60.70
11989;DHT22;6054;50.966;7.094;2023-11-21T07:20:34;16.30;60.70
11989;DHT22;6054;50.966;7.094;2023-11-21T07:23:01;16.00;60.30
11989;DHT22;6054;50.966;7.094;2023-11-21T07:25:29;16.10;60.70
11989;DHT22;6054;50.966;7.094;2023-11-21T07:27:57;16.30;60.60
11989;DHT22;6054;50.966;7.094;2023-11-21T07:30:24;16.40;59.90
11989;DHT22;6054;50.966;7.094;2023-11-21T07:32:52;16.10;60.10
11989;DHT22;6054;50.966;7.094;2023-11-21T07:35:19;16.10;60.80
11989;DHT22;6054;50.966;7.094;2023-11-21T07:37:45;16.10;61.30
11989;DHT22;6054;50.966;7.094;2023-11-21T07:40:14;16.10;61.50
11989;DHT22;6054;50.966;7.094;2023-11-21T07:42:42;16.20;61.30
11989;DHT22;6054;50.966;7.094;2023-11-21T07:45:09;16.00;60.60
11989;DHT22;6054;50.966;7.094;2023-11-21T07:47:37;16.20;60.70
11989;DHT22;6054;50.966;7.094;2023-11-21T07:50:07;16.10;59.30
11989;DHT22;6054;50.966;7.094;2023-11-21T07:52:34;16.20;62.00
11989;DHT22;6054;50.966;7.094;2023-11-21T07:55:01;16.30;60.80
11989;DHT22;6054;50.966;7.094;2023-11-21T07:57:29;16.20;61.10
11989;DHT22;6054;50.966;7.094;2023-11-21T07:59:55;16.20;61.10
11989;DHT22;6054;50.966;7.094;2023-11-21T08:02:22;16.20;60.50
11989;DHT22;6054;50.966;7.094;2023-11-21T08:04:49;16.50;60.30
11989;DHT22;6054;50.966;7.094;2023-11-21T08:07:18;16.20;59.40
11989;DHT22;6054;50.966;7.094;2023-11-21T08:09:45;16.20;59.90
11989;DHT22;6054;50.966;7.094;2023-11-21T08:12:14;16.20;61.00
11989;DHT22;6054;50.966;7.094;2023-11-21T08:14:42;16.20;60.70
11989;DHT22;6054;50.966;7.094;2023-11-21T08:17:10;16.20;60.60
11989;DHT22;6054;50.966;7.094;2023-11-21T08:19:36;16.50;59.50
11989;DHT22;6054;50.966;7.094;2023-11-21T08:22:03;16.30;60.20
11989;DHT22;6054;50.966;7.094;2023-11-21T08:24:34;16.30;60.30
11989;DHT22;6054;50.966;7.094;2023-11-21T08:27:01;16.30;61.30
11989;DHT22;6054;50.966;7.094;2023-11-21T08:29:29;16.40;60.90
11989;DHT22;6054;50.966;7.094;2023-11-21T08:31:56;16.50;61.10
11989;DHT22;6054;50.966;7.094;2023-11-21T08:34:24;16.30;62.00
11989;DHT22;6054;50.966;7.094;2023-11-21T08:36:50;16.40;61.90
11989;DHT22;6054;50.966;7.094;2023-11-21T08:39:17;16.40;62.10
11989;DHT22;6054;50.966;7.094;2023-11-21T08:41:46;16.40;62.30
11989;DHT22;6054;50.966;7.094;2023-11-21T08:44:13;16.40;61.20
11989;DHT22;6054;50.966;7.094;2023-11-21T08:46:42;16.40;60.90
11989;DHT22;6054;50.966;7.094;2023-11-21T08:49:10;16.40;61.30
11989;DHT22;6054;50.966;7.094;2023-11-21T08:51:37;16.50;61.40
11989;DHT22;6054;50.966;7.094;2023-11-21T08:54:05;16.50;61.20
11989;DHT22;6054;50.966;7.094;2023-11-21T08:56:33;16.50;60.90
11989;DHT22;6054;50.966;7.094;2023-11-21T08:59:02;16.70;60.40
11989;DHT22;6054;50.966;7.094;2023-11-21T09:01:29;16.60;61.10
11989;DHT22;6054;50.966;7.094;2023-11-21T09:03:57;16.90;60.00
11989;DHT22;6054;50.966;7.094;2023-11-21T09:06:24;16.60;57.90
11989;DHT22;6054;50.966;7.094;2023-11-21T09:08:51;16.50;61.90
11989;DHT22;6054;50.966;7.094;2023-11-21T09:11:27;16.60;62.30
11989;DHT22;6054;50.966;7.094;2023-11-21T09:13:58;16.60;62.90
11989;DHT22;6054;50.966;7.094;2023-11-21T09:16:42;16.60;62.80
11989;DHT22;6054;50.966;7.094;2023-11-21T09:19:08;16.60;63.20
11989;DHT22;6054;50.966;7.094;2023-11-21T09:21:35;16.60;61.20
11989;DHT22;6054;50.966;7.094;2023-11-21T09:24:02;16.60;61.40
11989;DHT22;6054;50.966;7.094;2023-11-21T09:26:29;16.60;63.00
11989;DHT22;6054;50.966;7.094;2023-11-21T09:28:56;16.60;62.30
11989;DHT22;6054;50.966;7.094;2023-11-21T09:31:23;16.60;62.50
11989;DHT22;6054;50.966;7.094;2023-11-21T09:33:51;16.40;60.80
11989;DHT22;6054;50.966;7.094;2023-11-21T09:36:18;16.70;62.40
11989;DHT22;6054;50.966;7.094;2023-11-21T09:38:47;16.70;62.50
11989;DHT22;6054;50.966;7.094;2023-11-21T09:41:20;17.00;62.60
11989;DHT22;6054;50.966;7.094;2023-11-21T09:43:51;17.00;63.00
11989;DHT22;6054;50.966;7.094;2023-11-21T09:46:22;17.10;63.90
11989;DHT22;6054;50.966;7.094;2023-11-21T09:48:52;16.80;63.40
11989;DHT22;6054;50.966;7.094;2023-11-21T09:51:20;16.80;63.30
11989;DHT22;6054;50.966;7.094;2023-11-21T09:53:50;16.80;63.50
11989;DHT22;6054;50.966;7.094;2023-11-21T09:56:18;16.80;61.30
11989;DHT22;6054;50.966;7.094;2023-11-21T09:58:51;16.80;61.40
11989;DHT22;6054;50.966;7.094;2023-11-21T10:01:19;17.20;64.10
11989;DHT22;6054;50.966;7.094;2023-11-21T10:03:47;16.80;64.10
11989;DHT22;6054;50.966;7.094;2023-11-21T10:06:15;16.90;61.60
11989;DHT22;6054;50.966;7.094;2023-11-21T10:08:44;17.10;63.90
11989;DHT22;6054;50.966;7.094;2023-11-21T10:11:12;16.90;64.00
11989;DHT22;6054;50.966;7.094;2023-11-21T10:13:41;16.90;63.90
11989;DHT22;6054;50.966;7.094;2023-11-21T10:16:10;16.90;63.60
11989;DHT22;6054;50.966;7.094;2023-11-21T10:18:39;17.20;64.00
11989;DHT22;6054;50.966;7.094;2023-11-21T10:21:07;16.90;62.80
11989;DHT22;6054;50.966;7.094;2023-11-21T10:23:36;16.90;61.80
11989;DHT22;6054;50.966;7.094;2023-11-21T10:26:04;16.90;62.10
11989;DHT22;6054;50.966;7.094;2023-11-21T10:28:35;16.90;61.20
11989;DHT22;6054;50.966;7.094;2023-11-21T10:31:06;16.90;63.40
11989;DHT22;6054;50.966;7.094;2023-11-21T10:33:33;17.20;61.10
11989;DHT22;6054;50.966;7.094;2023-11-21T10:36:00;16.90;61.90
11989;DHT22;6054;50.966;7.094;2023-11-21T10:38:27;16.90;62.70
11989;DHT22;6054;50.966;7.094;2023-11-21T10:40:57;16.90;62.90
11989;DHT22;6054;50.966;7.094;2023-11-21T10:43:25;16.90;62.60
11989;DHT22;6054;50.966;7.094;2023-11-21T10:45:52;16.90;63.50
11989;DHT22;6054;50.966;7.094;2023-11-21T10:48:25;16.90;63.60
11989;DHT22;6054;50.966;7.094;2023-11-21T10:50:52;16.90;62.60
11989;DHT22;6054;50.966;7.094;2023-11-21T10:53:20;16.90;62.40
11989;DHT22;6054;50.966;7.094;2023-11-21T10:55:47;16.90;60.40
11989;DHT22;6054;50.966;7.094;2023-11-21T10:58:16;17.10;61.30
11989;DHT22;6054;50.966;7.094;2023-11-21T11:00:44;16.90;62.40
11989;DHT22;6054;50.966;7.094;2023-11-21T11:03:12;16.90;63.20
11989;DHT22;6054;50.966;7.094;2023-11-21T11:05:40;17.20;63.00
11989;DHT22;6054;50.966;7.094;2023-11-21T11:08:12;16.90;63.10
11989;DHT22;6054;50.966;7.094;2023-11-21T11:10:44;16.90;61.90
11989;DHT22;6054;50.966;7.094;2023-11-21T11:13:12;16.90;62.80
11989;DHT22;6054;50.966;7.094;2023-11-21T11:15:42;17.00;63.00
11989;DHT22;6054;50.966;7.094;2023-11-21T11:18:09;16.90;63.20
11989;DHT22;6054;50.966;7.094;2023-11-21T11:20:37;17.00;61.80
11989;DHT22;6054;50.966;7.094;2023-11-21T11:23:28;17.20;63.80
11989;DHT22;6054;50.966;7.094;2023-11-21T11:26:08;16.90;63.90
11989;DHT22;6054;50.966;7.094;2023-11-21T11:28:46;16.90;63.70
11989;DHT22;6054;50.966;7.094;2023-11-21T11:31:22;16.90;63.60
11989;DHT22;6054;50.966;7.094;2023-11-21T11:33:56;16.90;64.10
11989;DHT22;6054;50.966;7.094;2023-11-21T11:36:28;17.20;64.20
11989;DHT22;6054;50.966;7.094;2023-11-21T11:38:56;17.00;63.70
11989;DHT22;6054;50.966;7.094;2023-11-21T11:41:25;17.00;62.50
11989;DHT22;6054;50.966;7.094;2023-11-21T11:43:52;17.00;61.90
11989;DHT22;6054;50.966;7.094;2023-11-21T11:46:20;17.20;62.60
11989;DHT22;6054;50.966;7.094;2023-11-21T11:49:03;17.00;62.90
11989;DHT22;6054;50.966;7.094;2023-11-21T11:51:36;17.00;61.30
11989;DHT22;6054;50.966;7.094;2023-11-21T11:54:05;17.00;61.10
11989;DHT22;6054;50.966;7.094;2023-11-21T11:56:34;17.20;63.50
11989;DHT22;6054;50.966;7.094;2023-11-21T11:59:03;17.20;60.40
11989;DHT22;6054;50.966;7.094;2023-11-21T12:01:34;17.10;64.00
11989;DHT22;6054;50.966;7.094;2023-11-21T12:04:25;17.10;63.00
11989;DHT22;6054;50.966;7.094;2023-11-21T12:07:00;17.10;64.00
11989;DHT22;6054;50.966;7.094;2023-11-21T12:09:30;17.10;64.00
11989;DHT22;6054;50.966;7.094;2023-11-21T12:11:58;17.10;63.90
11989;DHT22;6054;50.966;7.094;2023-11-21T12:14:25;17.10;63.60
11989;DHT22;6054;50.966;7.094;2023-11-21T12:16:53;17.10;63.50
11989;DHT22;6054;50.966;7.094;2023-11-21T12:19:20;17.10;62.60
11989;DHT22;6054;50.966;7.094;2023-11-21T12:21:49;17.40;63.50
11989;DHT22;6054;50.966;7.094;2023-11-21T12:24:16;17.20;63.40
11989;DHT22;6054;50.966;7.094;2023-11-21T12:26:43;17.10;63.10
11989;DHT22;6054;50.966;7.094;2023-11-21T12:29:11;17.20;63.60
11989;DHT22;6054;50.966;7.094;2023-11-21T12:31:37;17.40;63.50
11989;DHT22;6054;50.966;7.094;2023-11-21T12:34:06;17.20;63.10
11989;DHT22;6054;50.966;7.094;2023-11-21T12:36:37;17.20;63.40
11989;DHT22;6054;50.966;7.094;2023-11-21T12:39:03;17.30;64.10
11989;DHT22;6054;50.966;7.094;2023-11-21T12:41:30;17.30;63.20
11989;DHT22;6054;50.966;7.094;2023-11-21T12:43:57;17.30;63.40
11989;DHT22;6054;50.966;7.094;2023-11-21T12:46:24;17.30;63.50
11989;DHT22;6054;50.966;7.094;2023-11-21T12:48:55;17.40;63.90
11989;DHT22;6054;50.966;7.094;2023-11-21T12:51:23;17.40;63.30
11989;DHT22;6054;50.966;7.094;2023-11-21T12:53:50;17.60;63.30
11989;DHT22;6054;50.966;7.094;2023-11-21T12:56:18;17.50;63.20
11989;DHT22;6054;50.966;7.094;2023-11-21T12:58:48;17.40;63.60
11989;DHT22;6054;50.966;7.094;2023-11-21T13:01:17;17.40;63.20
11989;DHT22;6054;50.966;7.094;2023-11-21T13:03:47;17.40;63.50
11989;DHT22;6054;50.966;7.094;2023-11-21T13:06:17;17.40;63.50
11989;DHT22;6054;50.966;7.094;2023-11-21T13:08:46;17.40;63.80
11989;DHT22;6054;50.966;7.094;2023-11-21T13:11:14;17.50;63.70
11989;DHT22;6054;50.966;7.094;2023-11-21T13:13:42;17.40;63.10
11989;DHT22;6054;50.966;7.094;2023-11-21T13:16:09;17.40;63.40
11989;DHT22;6054;50.966;7.094;2023-11-21T13:18:36;17.40;62.50
11989;DHT22;6054;50.966;7.094;2023-11-21T13:21:06;17.70;63.10
11989;DHT22;6054;50.966;7.094;2023-11-21T13:23:36;17.50;63.30
11989;DHT22;6054;50.966;7.094;2023-11-21T13:26:05;17.50;63.10
11989;DHT22;6054;50.966;7.094;2023-11-21T13:28:32;17.50;62.90
11989;DHT22;6054;50.966;7.094;2023-11-21T13:31:00;17.50;63.30
11989;DHT22;6054;50.966;7.094;2023-11-21T13:33:34;17.50;63.40
11989;DHT22;6054;50.966;7.094;2023-11-21T13:36:04;17.50;63.40
11989;DHT22;6054;50.966;7.094;2023-11-21T13:38:33;17.50;63.40
11989;DHT22;6054;50.966;7.094;2023-11-21T13:41:01;17.50;62.90
11989;DHT22;6054;50.966;7.094;2023-11-21T13:43:36;17.50;62.30
11989;DHT22;6054;50.966;7.094;2023-11-21T13:46:04;17.70;61.00
11989;DHT22;6054;50.966;7.094;2023-11-21T13:48:42;17.50;62.30
11989;DHT22;6054;50.966;7.094;2023-11-21T13:51:16;17.50;62.10
11989;DHT22;6054;50.966;7.094;2023-11-21T13:53:43;17.50;62.60
11989;DHT22;6054;50.966;7.094;2023-11-21T13:56:12;17.50;62.90
11989;DHT22;6054;50.966;7.094;2023-11-21T13:58:45;17.50;61.70
11989;DHT22;6054;50.966;7.094;2023-11-21T14:01:16;17.50;62.20
11989;DHT22;6054;50.966;7.094;2023-11-21T14:04:07;17.50;62.50
11989;DHT22;6054;50.966;7.094;2023-11-21T14:06:45;17.50;62.30
11989;DHT22;6054;50.966;7.094;2023-11-21T14:09:13;17.50;62.80
11989;DHT22;6054;50.966;7.094;2023-11-21T14:11:49;17.40;62.20
11989;DHT22;6054;50.966;7.094;2023-11-21T14:14:17;17.40;62.50
11989;DHT22;6054;50.966;7.094;2023-11-21T14:16:44;17.60;61.60
11989;DHT22;6054;50.966;7.094;2023-11-21T14:19:11;17.40;62.00
11989;DHT22;6054;50.966;7.094;2023-11-21T14:21:41;17.40;62.00
11989;DHT22;6054;50.966;7.094;2023-11-21T14:24:09;17.40;62.20
11989;DHT22;6054;50.966;7.094;2023-11-21T14:26:39;17.40;62.00
11989;DHT22;6054;50.966;7.094;2023-11-21T14:29:06;17.70;63.10
11989;DHT22;6054;50.966;7.094;2023-11-21T14:31:35;17.40;61.60
11989;DHT22;6054;50.966;7.094;2023-11-21T14:34:02;17.50;62.60
11989;DHT22;6054;50.966;7.094;2023-11-21T14:36:31;17.60;62.30
11989;DHT22;6054;50.966;7.094;2023-11-21T14:38:58;17.50;63.10
11989;DHT22;6054;50.966;7.094;2023-11-21T14:41:25;17.50;62.30
11989;DHT22;6054;50.966;7.094;2023-11-21T14:43:53;17.50;61.80
11989;DHT22;6054;50.966;7.094;2023-11-21T14:46:20;17.50;62.00
11989;DHT22;6054;50.966;7.094;2023-11-21T14:48:48;17.50;61.80
11989;DHT22;6054;50.966;7.094;2023-11-21T14:51:24;17.50;61.80
11989;DHT22;6054;50.966;7.094;2023-11-21T14:53:56;17.50;62.20
11989;DHT22;6054;50.966;7.094;2023-11-21T14:56:26;17.70;62.50
11989;DHT22;6054;50.966;7.094;2023-11-21T14:58:57;17.50;62.60
11989;DHT22;6054;50.966;7.094;2023-11-21T15:01:23;17.50;62.70
11989;DHT22;6054;50.966;7.094;2023-11-21T15:04:09;17.50;62.20
11989;DHT22;6054;50.966;7.094;2023-11-21T15:06:40;17.50;62.20
11989;DHT22;6054;50.966;7.094;2023-11-21T15:09:08;17.50;61.90
11989;DHT22;6054;50.966;7.094;2023-11-21T15:12:00;17.50;62.00
11989;DHT22;6054;50.966;7.094;2023-11-21T15:14:36;17.80;62.80
11989;DHT22;6054;50.966;7.094;2023-11-21T15:17:02;17.50;61.80
11989;DHT22;6054;50.966;7.094;2023-11-21T15:19:33;17.50;62.10
11989;DHT22;6054;50.966;7.094;2023-11-21T15:22:01;17.50;62.20
11989;DHT22;6054;50.966;7.094;2023-11-21T15:24:28;17.50;62.70
11989;DHT22;6054;50.966;7.094;2023-11-21T15:26:54;17.50;61.70
11989;DHT22;6054;50.966;7.094;2023-11-21T15:29:21;17.40;62.10
11989;DHT22;6054;50.966;7.094;2023-11-21T15:31:48;17.40;61.90
11989;DHT22;6054;50.966;7.094;2023-11-21T15:34:15;17.50;61.40
11989;DHT22;6054;50.966;7.094;2023-11-21T15:36:43;17.40;62.40
11989;DHT22;6054;50.966;7.094;2023-11-21T15:39:10;17.40;61.70
11989;DHT22;6054;50.966;7.094;2023-11-21T15:41:38;17.40;61.80
11989;DHT22;6054;50.966;7.094;2023-11-21T15:44:06;17.40;62.00
11989;DHT22;6054;50.966;7.094;2023-11-21T15:46:35;17.40;62.30
11989;DHT22;6054;50.966;7.094;2023-11-21T15:49:03;17.30;61.80
11989;DHT22;6054;50.966;7.094;2023-11-21T15:51:38;17.30;62.10
11989;DHT22;6054;50.966;7.094;2023-11-21T15:54:06;17.30;62.60